createdAt,value
2023-02-06T00:01:24.683Z,18.77
2023-02-06T00:03:53.217Z,19.85
2023-02-06T00:06:21.559Z,17.55
2023-02-06T00:08:49.865Z,22.05
2023-02-06T00:11:18.471Z,18.55
2023-02-06T00:13:48.094Z,19.15
2023-02-06T00:16:17.991Z,20.20
2023-02-06T00:18:46.338Z,18.85
2023-02-06T00:21:15.118Z,19.55
2023-02-06T00:23:43.402Z,19.52
2023-02-06T00:26:11.672Z,19.67
2023-02-06T00:28:40.046Z,20.77
2023-02-06T00:31:10.290Z,18.42
2023-02-06T00:33:38.995Z,19.65
2023-02-06T00:36:07.636Z,19.08
2023-02-06T00:38:35.940Z,18.17
2023-02-06T00:41:04.216Z,18.83
2023-02-06T00:43:32.509Z,19.30
2023-02-06T00:46:00.831Z,20.70
2023-02-06T00:48:30.501Z,20.63
2023-02-06T00:50:58.756Z,20.10
2023-02-06T00:53:27.059Z,18.92
2023-02-06T00:55:55.412Z,18.75
2023-02-06T00:58:23.785Z,21.17
2023-02-06T01:00:52.431Z,19.23
2023-02-06T01:03:20.716Z,19.95
2023-02-06T01:05:50.574Z,19.17
2023-02-06T01:08:18.853Z,19.30
2023-02-06T01:10:47.139Z,18.30
2023-02-06T01:13:15.424Z,18.38
2023-02-06T01:15:43.832Z,19.58
2023-02-06T01:18:12.531Z,20.70
2023-02-06T01:20:41.597Z,19.25
2023-02-06T01:23:11.333Z,20.33
2023-02-06T01:25:39.614Z,20.90
2023-02-06T01:28:07.947Z,18.35
2023-02-06T01:30:36.235Z,17.48
2023-02-06T01:33:04.519Z,18.42
2023-02-06T01:35:32.930Z,18.25
2023-02-06T01:38:01.266Z,20.92
2023-02-06T01:40:30.869Z,18.60
2023-02-06T01:42:59.208Z,19.55
2023-02-06T01:45:45.538Z,19.15
2023-02-06T01:48:16.773Z,19.48
2023-02-06T01:50:46.545Z,18.83
2023-02-06T01:53:15.986Z,20.25
2023-02-06T01:55:46.169Z,18.23
2023-02-06T01:58:17.495Z,17.70
2023-02-06T02:00:45.946Z,19.67
2023-02-06T02:03:14.261Z,17.95
2023-02-06T02:05:43.610Z,19.48
2023-02-06T02:08:14.062Z,19.48
2023-02-06T02:10:42.385Z,19.92
2023-02-06T02:13:12.373Z,19.55
2023-02-06T02:15:43.264Z,20.77
2023-02-06T02:18:20.288Z,17.80
2023-02-06T02:21:07.091Z,20.13
2023-02-06T02:23:37.289Z,20.60
2023-02-06T02:26:24.649Z,22.92
2023-02-06T02:29:08.250Z,20.90
2023-02-06T02:31:49.107Z,18.55
2023-02-06T02:34:32.153Z,19.55
2023-02-06T02:37:02.380Z,19.88
2023-02-06T02:39:34.268Z,19.35
2023-02-06T02:42:07.020Z,19.58
2023-02-06T02:44:37.331Z,18.52
2023-02-06T02:47:08.603Z,19.60
2023-02-06T02:49:39.088Z,19.73
2023-02-06T02:52:07.403Z,23.17
2023-02-06T02:54:35.676Z,21.25
2023-02-06T02:57:07.934Z,21.70
2023-02-06T02:59:37.824Z,20.02
2023-02-06T03:02:08.131Z,22.38
2023-02-06T03:04:39.642Z,19.15
2023-02-06T03:07:15.976Z,20.23
2023-02-06T03:09:48.270Z,21.20
2023-02-06T03:12:21.664Z,24.02
2023-02-06T03:14:51.980Z,18.20
2023-02-06T03:17:24.720Z,19.45
2023-02-06T03:19:57.336Z,21.20
2023-02-06T03:22:25.837Z,21.10
2023-02-06T03:24:54.676Z,18.45
2023-02-06T03:27:24.551Z,21.50
2023-02-06T03:29:55.195Z,21.38
2023-02-06T03:32:26.744Z,19.75
2023-02-06T03:34:58.645Z,18.52
2023-02-06T03:37:27.532Z,19.27
2023-02-06T03:39:56.220Z,18.50
2023-02-06T03:42:24.708Z,19.13
2023-02-06T03:44:55.242Z,18.98
2023-02-06T03:47:24.676Z,20.25
2023-02-06T03:49:53.353Z,19.90
2023-02-06T03:52:25.793Z,21.17
2023-02-06T03:54:55.513Z,19.65
2023-02-06T03:57:24.855Z,19.45
2023-02-06T03:59:53.152Z,20.23
2023-02-06T04:02:22.773Z,19.38
2023-02-06T04:04:51.143Z,19.48
2023-02-06T04:07:20.510Z,19.48
2023-02-06T04:09:50.216Z,23.10
2023-02-06T04:12:18.549Z,22.40
2023-02-06T04:14:46.964Z,22.48
2023-02-06T04:17:21.114Z,21.52
2023-02-06T04:19:59.777Z,21.92
2023-02-06T04:22:28.058Z,21.85
2023-02-06T04:24:57.691Z,22.45
2023-02-06T04:27:25.981Z,20.83
2023-02-06T04:29:54.318Z,21.08
2023-02-06T04:32:22.596Z,20.63
2023-02-06T04:34:50.854Z,20.25
2023-02-06T04:37:19.083Z,17.58
2023-02-06T04:39:47.376Z,20.63
2023-02-06T04:42:16.990Z,22.55
2023-02-06T04:44:45.403Z,21.38
2023-02-06T04:47:13.713Z,21.70
2023-02-06T04:49:42.075Z,19.83
2023-02-06T04:52:10.324Z,21.30
2023-02-06T04:54:38.616Z,21.40
2023-02-06T04:57:06.903Z,23.27
2023-02-06T04:59:36.534Z,21.48
2023-02-06T05:02:04.806Z,23.02
2023-02-06T05:04:33.095Z,22.42
2023-02-06T05:07:01.374Z,23.80
2023-02-06T05:09:31.551Z,22.40
2023-02-06T05:11:59.826Z,19.90
2023-02-06T05:14:28.217Z,20.60
2023-02-06T05:16:57.888Z,22.83
2023-02-06T05:19:26.200Z,21.48
2023-02-06T05:21:54.478Z,20.67
2023-02-06T05:24:22.775Z,20.50
2023-02-06T05:26:51.084Z,22.50
2023-02-06T05:29:19.403Z,23.95
2023-02-06T05:31:47.728Z,21.35
2023-02-06T05:34:17.398Z,21.48
2023-02-06T05:36:45.661Z,20.85
2023-02-06T05:39:14.548Z,22.90
2023-02-06T05:41:42.838Z,21.70
2023-02-06T05:44:11.375Z,22.30
2023-02-06T05:46:39.752Z,21.90
2023-02-06T05:49:08.071Z,21.15
2023-02-06T05:51:37.706Z,22.92
2023-02-06T05:54:06.136Z,24.00
2023-02-06T05:56:34.420Z,21.45
2023-02-06T05:59:02.653Z,21.15
2023-02-06T06:01:30.935Z,23.05
2023-02-06T06:03:59.248Z,25.80
2023-02-06T06:06:27.598Z,24.85
2023-02-06T06:08:57.189Z,24.40
2023-02-06T06:11:25.710Z,24.42
2023-02-06T06:13:53.954Z,23.23
2023-02-06T06:16:22.225Z,24.35
2023-02-06T06:18:50.507Z,24.33
2023-02-06T06:21:18.771Z,22.58
2023-02-06T06:23:47.051Z,23.33
2023-02-06T06:26:16.766Z,23.25
2023-02-06T06:28:45.006Z,24.98
2023-02-06T06:31:14.004Z,21.90
2023-02-06T06:33:42.603Z,27.17
2023-02-06T06:36:14.244Z,24.85
2023-02-06T06:38:42.707Z,23.55
2023-02-06T06:41:11.056Z,22.05
2023-02-06T06:43:42.211Z,22.85
2023-02-06T06:46:10.617Z,22.23
2023-02-06T06:48:38.890Z,24.17
2023-02-06T06:51:07.349Z,24.63
2023-02-06T06:53:39.804Z,26.55
2023-02-06T06:56:09.225Z,24.63
2023-02-06T06:58:37.506Z,24.85
2023-02-06T07:01:08.517Z,24.85
2023-02-06T07:03:36.870Z,24.38
2023-02-06T07:06:05.233Z,21.95
2023-02-06T07:08:33.492Z,22.98
2023-02-06T07:11:01.746Z,24.08
2023-02-06T07:13:30.001Z,24.92
2023-02-06T07:15:58.273Z,23.15
2023-02-06T07:18:27.924Z,25.00
2023-02-06T07:20:56.222Z,24.25
2023-02-06T07:23:24.509Z,19.80
2023-02-06T07:25:53.097Z,21.73
2023-02-06T07:28:21.414Z,21.42
2023-02-06T07:30:49.697Z,21.05
2023-02-06T07:33:17.954Z,23.60
2023-02-06T07:35:47.577Z,27.00
2023-02-06T07:38:15.833Z,37.20
2023-02-06T07:40:45.325Z,48.17
2023-02-06T07:43:14.316Z,36.17
2023-02-06T07:45:42.815Z,33.42
2023-02-06T07:48:11.298Z,33.78
2023-02-06T07:50:39.818Z,26.42
2023-02-06T07:53:09.483Z,30.15
2023-02-06T07:55:38.848Z,29.20
2023-02-06T07:58:07.352Z,26.77
2023-02-06T08:00:35.648Z,27.52
2023-02-06T08:03:05.028Z,28.30
2023-02-06T08:05:34.060Z,24.25
2023-02-06T08:08:02.462Z,28.58
2023-02-06T08:10:32.052Z,26.23
2023-02-06T08:13:00.362Z,27.23
2023-02-06T08:15:28.592Z,45.35
2023-02-06T08:17:56.849Z,30.70
2023-02-06T08:20:25.071Z,30.02
2023-02-06T08:22:53.331Z,26.92
2023-02-06T08:25:21.792Z,28.52
2023-02-06T08:27:53.481Z,25.90
2023-02-06T08:30:21.902Z,27.58
2023-02-06T08:32:50.213Z,25.35
2023-02-06T08:35:18.533Z,26.25
2023-02-06T08:37:46.815Z,29.58
2023-02-06T08:40:15.068Z,25.17
2023-02-06T08:42:43.321Z,26.25
2023-02-06T08:45:12.916Z,30.10
2023-02-06T08:47:41.163Z,35.25
2023-02-06T08:50:09.639Z,24.80
2023-02-06T08:52:37.917Z,26.65
2023-02-06T08:55:06.361Z,26.73
2023-02-06T08:57:34.644Z,26.15
2023-02-06T09:00:02.892Z,27.33
2023-02-06T09:02:32.584Z,29.02
2023-02-06T09:05:00.876Z,27.95
2023-02-06T09:07:29.323Z,26.63
2023-02-06T09:09:57.625Z,24.10
2023-02-06T09:12:25.920Z,23.92
2023-02-06T09:14:54.168Z,24.33
2023-02-06T09:17:22.550Z,24.10
2023-02-06T09:19:52.150Z,22.92
2023-02-06T09:22:20.492Z,24.65
2023-02-06T09:24:49.131Z,23.05
2023-02-06T09:27:17.571Z,25.13
2023-02-06T09:29:46.825Z,23.88
2023-02-06T09:32:15.109Z,23.60
2023-02-06T09:34:43.372Z,21.75
2023-02-06T09:37:13.045Z,21.70
2023-02-06T09:39:41.302Z,23.83
2023-02-06T09:42:12.087Z,23.65
2023-02-06T09:44:43.734Z,21.70
2023-02-06T09:47:19.197Z,22.70
2023-02-06T09:49:49.238Z,22.92
2023-02-06T09:52:31.216Z,20.05
2023-02-06T09:55:04.624Z,21.30
2023-02-06T09:57:39.167Z,21.50
2023-02-06T10:00:11.721Z,21.48
2023-02-06T10:02:52.486Z,19.00
2023-02-06T10:05:24.129Z,19.33
2023-02-06T10:08:02.866Z,20.70
2023-02-06T10:10:35.534Z,18.50
2023-02-06T10:13:06.319Z,22.95
2023-02-06T10:15:35.792Z,20.92
2023-02-06T10:18:07.771Z,22.60
2023-02-06T10:20:37.890Z,20.27
2023-02-06T10:23:12.910Z,18.92
2023-02-06T10:25:43.629Z,18.90
2023-02-06T10:28:21.715Z,18.70
2023-02-06T10:30:57.517Z,17.85
2023-02-06T10:33:29.964Z,15.65
2023-02-06T10:36:01.349Z,17.33
2023-02-06T10:38:38.943Z,16.85
2023-02-06T10:41:10.823Z,17.48
2023-02-06T10:43:42.562Z,21.13
2023-02-06T10:46:20.457Z,17.88
2023-02-06T10:48:53.589Z,15.98
2023-02-06T10:53:53.421Z,21.20
2023-02-06T10:56:24.700Z,18.65
2023-02-06T10:58:55.175Z,19.55
2023-02-06T11:01:26.617Z,15.00
2023-02-06T11:03:58.579Z,14.82
2023-02-06T11:06:28.126Z,13.15
2023-02-06T11:08:57.953Z,15.25
2023-02-06T11:11:27.203Z,13.55
2023-02-06T11:13:57.313Z,12.13
2023-02-06T11:16:27.225Z,14.45
2023-02-06T11:18:56.795Z,14.48
2023-02-06T11:21:44.002Z,15.05
2023-02-06T11:24:14.554Z,14.55
2023-02-06T11:26:43.357Z,14.30
2023-02-06T11:29:16.516Z,13.38
2023-02-06T11:31:46.665Z,14.65
2023-02-06T11:34:23.551Z,14.35
2023-02-06T11:36:53.809Z,12.18
2023-02-06T11:39:26.027Z,14.05
2023-02-06T11:42:01.445Z,12.52
2023-02-06T11:44:30.352Z,14.18
2023-02-06T11:46:58.644Z,15.02
2023-02-06T11:49:29.096Z,12.02
2023-02-06T11:51:59.871Z,14.38
2023-02-06T11:54:30.316Z,13.70
2023-02-06T11:57:01.981Z,15.48
2023-02-06T11:59:30.560Z,11.02
2023-02-06T12:02:01.505Z,12.10
2023-02-06T12:04:30.881Z,10.80
2023-02-06T12:07:01.056Z,10.45
2023-02-06T12:09:30.779Z,10.98
2023-02-06T12:12:01.130Z,12.02
2023-02-06T12:14:33.714Z,10.60
2023-02-06T12:17:03.184Z,9.70
2023-02-06T12:19:34.570Z,10.40
2023-02-06T12:22:04.729Z,9.73
2023-02-06T12:24:35.955Z,8.45
2023-02-06T12:27:06.229Z,9.10
2023-02-06T12:29:36.999Z,9.10
2023-02-06T12:32:10.871Z,9.70
2023-02-06T12:37:15.110Z,8.88
2023-02-06T12:39:45.493Z,10.73
2023-02-06T12:42:31.986Z,9.45
2023-02-06T12:45:02.607Z,11.35
2023-02-06T12:47:32.679Z,11.18
2023-02-06T12:50:03.483Z,10.38
2023-02-06T12:52:35.481Z,13.70
2023-02-06T12:55:09.006Z,15.98
2023-02-06T12:57:38.717Z,12.80
2023-02-06T13:00:40.340Z,12.30
2023-02-06T13:03:17.181Z,12.20
2023-02-06T13:05:47.023Z,11.98
2023-02-06T13:08:17.101Z,10.10
2023-02-06T13:10:47.009Z,10.85
2023-02-06T13:13:30.157Z,10.60
2023-02-06T13:16:00.471Z,11.75
2023-02-06T13:18:52.854Z,13.60
2023-02-06T13:21:24.046Z,13.85
2023-02-06T13:23:53.434Z,13.25
2023-02-06T13:26:43.059Z,10.23
2023-02-06T13:29:23.282Z,12.13
2023-02-06T13:31:51.658Z,11.32
2023-02-06T13:34:20.445Z,10.40
2023-02-06T13:36:50.475Z,11.20
2023-02-06T13:39:26.520Z,11.70
2023-02-06T13:41:56.249Z,11.98
2023-02-06T13:44:27.004Z,14.90
2023-02-06T13:47:10.089Z,12.40
2023-02-06T13:49:52.142Z,11.48
2023-02-06T13:52:34.361Z,10.27
2023-02-06T13:55:10.419Z,10.57
2023-02-06T13:57:53.570Z,12.70
2023-02-06T14:00:23.445Z,14.70
2023-02-06T14:02:53.694Z,9.48
2023-02-06T14:05:27.113Z,20.17
2023-02-06T14:08:01.009Z,10.32
2023-02-06T14:10:39.114Z,13.90
2023-02-06T14:13:19.443Z,9.07
2023-02-06T14:15:51.408Z,11.98
2023-02-06T14:18:31.676Z,11.77
2023-02-06T14:21:04.187Z,9.88
2023-02-06T14:23:38.138Z,11.65
2023-02-06T14:26:11.652Z,9.88
2023-02-06T14:28:46.204Z,9.60
2023-02-06T14:31:20.655Z,10.00
2023-02-06T14:34:04.313Z,11.38
2023-02-06T14:36:39.871Z,11.38
2023-02-06T14:39:31.236Z,10.68
2023-02-06T14:41:59.735Z,15.75
2023-02-06T14:44:31.666Z,22.08
2023-02-06T14:47:00.308Z,18.70
2023-02-06T14:49:31.553Z,23.13
2023-02-06T14:52:00.019Z,13.43
2023-02-06T14:54:30.593Z,10.77
2023-02-06T14:57:01.271Z,29.27
2023-02-06T14:59:30.959Z,15.93
2023-02-06T15:02:00.372Z,10.52
2023-02-06T15:04:29.703Z,6.90
2023-02-06T15:07:01.721Z,7.00
2023-02-06T15:09:31.030Z,10.50
2023-02-06T15:12:01.695Z,9.85
2023-02-06T15:14:33.665Z,7.57
2023-02-06T15:17:03.519Z,7.53
2023-02-06T15:19:35.507Z,8.55
2023-02-06T15:22:14.326Z,7.18
2023-02-06T15:24:57.466Z,7.07
2023-02-06T15:27:29.985Z,8.85
2023-02-06T15:30:02.530Z,5.15
2023-02-06T15:32:32.926Z,4.22
2023-02-06T15:35:03.964Z,4.50
2023-02-06T15:37:34.053Z,5.60
2023-02-06T15:40:09.028Z,6.32
2023-02-06T15:42:46.979Z,10.65
2023-02-06T15:45:19.690Z,5.97
2023-02-06T15:47:51.267Z,8.85
2023-02-06T15:50:32.267Z,7.80
2023-02-06T15:53:03.430Z,5.55
2023-02-06T15:55:34.125Z,4.68
2023-02-06T15:58:03.858Z,6.10
2023-02-06T16:00:34.431Z,4.78
2023-02-06T16:03:04.021Z,4.28
2023-02-06T16:05:33.193Z,4.10
2023-02-06T16:08:01.721Z,6.40
2023-02-06T16:10:30.860Z,4.68
2023-02-06T16:13:01.627Z,7.65
2023-02-06T16:15:31.673Z,15.75
2023-02-06T16:18:03.206Z,7.10
2023-02-06T16:20:33.411Z,5.40
2023-02-06T16:23:21.407Z,8.13
2023-02-06T16:25:50.565Z,6.95
2023-02-06T16:28:22.901Z,4.88
2023-02-06T16:30:55.471Z,8.55
2023-02-06T16:33:30.562Z,7.15
2023-02-06T16:35:58.817Z,5.53
2023-02-06T16:38:27.107Z,8.98
2023-02-06T16:40:55.632Z,17.17
2023-02-06T16:43:24.386Z,7.95
2023-02-06T16:45:52.718Z,7.30
2023-02-06T16:48:21.353Z,11.18
2023-02-06T16:50:50.985Z,8.32
2023-02-06T16:53:21.513Z,9.93
2023-02-06T16:55:49.857Z,6.45
2023-02-06T16:58:19.246Z,6.72
2023-02-06T17:00:47.953Z,8.77
2023-02-06T17:03:17.669Z,9.35
2023-02-06T17:05:46.499Z,7.68
2023-02-06T17:08:18.392Z,7.10
2023-02-06T17:10:47.164Z,7.40
2023-02-06T17:13:16.166Z,7.10
2023-02-06T17:15:47.022Z,8.02
2023-02-06T17:18:17.334Z,6.65
2023-02-06T17:20:46.883Z,8.20
2023-02-06T17:23:15.240Z,6.47
2023-02-06T17:25:45.944Z,7.10
2023-02-06T17:28:15.862Z,6.97
2023-02-06T17:30:44.490Z,7.00
2023-02-06T17:33:13.079Z,7.68
2023-02-06T17:35:41.320Z,6.63
2023-02-06T17:38:10.614Z,8.68
2023-02-06T17:40:40.923Z,6.85
2023-02-06T17:43:10.696Z,9.35
2023-02-06T17:45:39.633Z,6.47
2023-02-06T17:48:08.601Z,7.57
2023-02-06T17:50:38.020Z,7.40
2023-02-06T17:53:07.124Z,9.55
2023-02-06T17:55:39.279Z,7.30
2023-02-06T17:58:08.068Z,7.05
2023-02-06T18:00:38.220Z,7.22
2023-02-06T18:03:06.807Z,9.50
2023-02-06T18:05:35.837Z,11.57
2023-02-06T18:08:04.269Z,9.82
2023-02-06T18:10:32.548Z,10.25
2023-02-06T18:13:00.842Z,12.45
2023-02-06T18:15:31.614Z,8.23
2023-02-06T18:18:01.766Z,10.15
2023-02-06T18:20:37.019Z,12.73
2023-02-06T18:23:05.468Z,11.60
2023-02-06T18:25:36.040Z,10.38
2023-02-06T18:28:04.516Z,12.23
2023-02-06T18:30:34.463Z,13.60
2023-02-06T18:33:04.330Z,11.13
2023-02-06T18:35:32.921Z,8.05
2023-02-06T18:38:10.438Z,10.18
2023-02-06T18:40:40.369Z,6.75
2023-02-06T18:43:08.049Z,6.93
2023-02-06T18:45:38.273Z,7.78
2023-02-06T18:48:08.986Z,6.90
2023-02-06T18:50:37.708Z,7.78
2023-02-06T18:53:06.212Z,7.15
2023-02-06T18:55:36.158Z,7.63
2023-02-06T18:58:04.969Z,8.35
2023-02-06T19:00:34.941Z,7.43
2023-02-06T19:03:03.615Z,5.15
2023-02-06T19:05:36.072Z,7.05
2023-02-06T19:08:04.429Z,5.88
2023-02-06T19:10:36.031Z,8.60
2023-02-06T19:13:05.037Z,6.65
2023-02-06T19:15:35.835Z,21.08
2023-02-06T19:18:05.585Z,22.48
2023-02-06T19:20:38.620Z,18.13
2023-02-06T19:23:06.980Z,16.80
2023-02-06T19:25:35.466Z,10.18
2023-02-06T19:28:06.535Z,10.48
2023-02-06T19:30:36.943Z,12.20
2023-02-06T19:33:05.435Z,14.80
2023-02-06T19:35:35.040Z,23.48
2023-02-06T19:38:03.545Z,12.85
2023-02-06T19:40:32.216Z,10.65
2023-02-06T19:43:00.631Z,13.40
2023-02-06T19:45:29.205Z,7.57
2023-02-06T19:47:58.052Z,9.50
2023-02-06T19:50:26.353Z,10.18
2023-02-06T19:52:56.132Z,7.03
2023-02-06T19:55:24.827Z,7.03
2023-02-06T19:57:53.189Z,7.22
2023-02-06T20:00:21.962Z,8.88
2023-02-06T20:02:53.345Z,9.43
2023-02-06T20:05:26.356Z,8.00
2023-02-06T20:07:56.132Z,9.60
2023-02-06T20:10:25.039Z,6.63
2023-02-06T20:12:53.428Z,7.32
2023-02-06T20:15:22.602Z,9.10
2023-02-06T20:17:54.726Z,7.47
2023-02-06T20:20:23.387Z,7.32
2023-02-06T20:22:51.980Z,7.25
2023-02-06T20:25:22.073Z,6.50
2023-02-06T20:27:50.447Z,5.55
2023-02-06T20:30:19.820Z,5.15
2023-02-06T20:35:50.928Z,7.55
2023-02-06T20:38:19.322Z,5.60
2023-02-06T20:40:55.589Z,6.90
2023-02-06T20:43:26.562Z,6.07
2023-02-06T20:45:57.453Z,7.28
2023-02-06T20:48:27.267Z,6.25
2023-02-06T20:51:00.127Z,6.00
2023-02-06T20:53:28.433Z,5.70
2023-02-06T20:55:58.125Z,7.15
2023-02-06T20:58:26.961Z,7.22
2023-02-06T21:00:55.571Z,6.82
2023-02-06T21:03:24.184Z,6.00
2023-02-06T21:05:59.191Z,6.40
2023-02-06T21:08:29.164Z,8.32
2023-02-06T21:10:58.805Z,7.43
2023-02-06T21:13:29.448Z,9.70
2023-02-06T21:15:58.486Z,9.57
2023-02-06T21:18:27.953Z,9.63
2023-02-06T21:21:19.262Z,9.00
2023-02-06T21:23:48.112Z,12.25
2023-02-06T21:26:20.570Z,8.68
2023-02-06T21:28:55.396Z,6.72
2023-02-06T21:31:24.439Z,8.75
2023-02-06T21:34:09.675Z,10.68
2023-02-06T21:36:50.042Z,15.45
2023-02-06T21:39:21.817Z,12.27
2023-02-06T21:41:56.019Z,7.55
2023-02-06T21:44:28.938Z,8.82
2023-02-06T21:46:58.320Z,6.50
2023-02-06T21:49:26.962Z,6.55
2023-02-06T21:52:18.725Z,6.30
2023-02-06T21:54:53.533Z,8.77
2023-02-06T21:57:23.186Z,9.57
2023-02-06T21:59:53.913Z,6.75
2023-02-06T22:02:22.217Z,6.03
2023-02-06T22:04:53.548Z,10.10
2023-02-06T22:07:21.987Z,8.45
2023-02-06T22:09:50.276Z,8.07
2023-02-06T22:12:19.725Z,9.18
2023-02-06T22:14:49.368Z,14.05
2023-02-06T22:17:17.638Z,15.52
2023-02-06T22:19:55.114Z,15.40
2023-02-06T22:22:23.512Z,12.05
2023-02-06T22:24:53.076Z,11.07
2023-02-06T22:27:21.771Z,12.13
2023-02-06T22:29:56.297Z,13.77
2023-02-06T22:32:27.368Z,10.48
2023-02-06T22:34:55.803Z,9.20
2023-02-06T22:37:24.089Z,8.52
2023-02-06T22:39:52.378Z,6.60
2023-02-06T22:42:20.639Z,7.78
2023-02-06T22:44:51.033Z,8.75
2023-02-06T22:47:20.837Z,6.38
2023-02-06T22:49:51.518Z,7.97
2023-02-06T22:52:37.819Z,7.90
2023-02-06T22:55:09.459Z,7.85
2023-02-06T22:57:37.952Z,9.55
2023-02-06T23:00:09.412Z,10.40
2023-02-06T23:02:39.379Z,10.05
2023-02-06T23:05:09.437Z,7.78
2023-02-06T23:07:37.935Z,7.30
2023-02-06T23:10:06.845Z,11.65
2023-02-06T23:12:35.142Z,12.35
2023-02-06T23:15:03.430Z,14.35
2023-02-06T23:17:31.808Z,8.43
2023-02-06T23:20:01.557Z,9.52
2023-02-06T23:22:29.856Z,9.05
2023-02-06T23:24:58.232Z,10.02
2023-02-06T23:27:29.190Z,9.50
2023-02-06T23:29:57.520Z,11.30
2023-02-06T23:32:25.796Z,9.82
2023-02-06T23:34:54.062Z,10.40
2023-02-06T23:37:23.676Z,9.23
2023-02-06T23:39:52.024Z,9.20
2023-02-06T23:42:20.426Z,9.45
2023-02-06T23:44:48.691Z,8.85
2023-02-06T23:47:17.197Z,9.52
2023-02-06T23:49:45.469Z,9.93
2023-02-06T23:52:13.870Z,9.48
2023-02-06T23:54:43.512Z,9.27
2023-02-06T23:57:11.942Z,10.65
2023-02-06T23:59:40.240Z,9.82
